CST,Max TemperatureF,Mean TemperatureF,Min TemperatureF,Max Dew PointF,MeanDew PointF,Min DewpointF,Max Humidity, Mean Humidity, Min Humidity, Max Sea Level PressureIn, Mean Sea Level PressureIn, Min Sea Level PressureIn, Max VisibilityMiles, Mean VisibilityMiles, Min VisibilityMiles, Max Wind SpeedMPH, Mean Wind SpeedMPH, Max Gust SpeedMPH,PrecipitationIn, CloudCover, Events, WindDirDegrees
2012-11-1,59,48,38,40,36,32,93,70,43,30.05,29.98,29.93,10,8,0,16,8,24,0.00,1,Fog,17
2012-11-2,53,44,32,37,33,29,95,74,45,30.11,29.96,29.89,10,8,2,16,9,22,0.00,0,,62
2012-11-3,56,40,26,35,31,26,96,71,41,30.21,30.17,30.11,10,8,4,10,6,,0.00,2,,336
2012-11-4,57,47,37,38,34,32,81,64,41,30.17,30.08,30.00,10,10,10,14,7,,0.00,4,Rain,251
2012-11-5,44,40,36,37,33,30,83,75,62,30.20,30.13,30.03,10,10,10,21,14,28,0.01,6,,2
2012-11-6,59,46,32,35,24,10,81,50,15,30.13,30.07,29.97,10,10,10,31,16,39,0.00,1,Rain,306
2012-11-7,59,43,27,28,23,18,73,49,23,30.17,30.08,29.95,10,10,10,15,8,18,0.00,0,,193
2012-11-8,64,51,38,30,27,26,69,47,25,29.95,29.88,29.83,10,10,4,15,10,21,0.00,0,,196
2012-11-9,56,44,33,39,35,29,95,77,52,29.84,29.75,29.59,10,6,1,15,10,21,0.00,2,Snow,12
2012-11-10,77,54,30,56,39,24,99,73,32,29.75,29.55,29.41,10,7,0,29,10,39,0.72,2,Fog-Rain-Thunderstorm,240
2012-11-11,32,24,17,24,13,9,77,60,38,30.19,30.01,29.78,10,10,10,28,20,37,0.63,2,,315
2012-11-12,44,30,16,15,12,6,75,49,21,30.34,30.27,30.20,10,10,10,22,11,29,0.00,0,,276
2012-11-13,56,40,23,24,16,11,64,42,17,30.34,30.27,30.20,10,10,10,14,7,17,0.00,1,,197
2012-11-14,55,40,24,27,23,20,82,54,27,30.28,30.22,30.15,10,10,10,15,7,20,0.00,1,,214
2012-11-15,57,42,28,31,27,22,82,54,27,30.44,30.30,30.15,10,10,7,16,8,17,0.00,3,Rain,358
2012-11-16,57,40,24,32,28,22,95,65,30,30.44,30.34,30.23,10,10,2,17,7,23,0.00,0,,149
2012-11-17,63,50,37,34,31,28,70,52,32,30.24,30.14,30.06,10,10,10,22,13,29,0.00,0,,175
2012-11-18,59,48,38,36,31,28,73,54,36,30.09,30.03,29.97,10,10,7,18,10,25,0.00,0,,170
2012-11-19,65,48,31,35,31,26,91,61,25,30.17,30.06,29.97,10,10,10,17,8,21,0.00,0,,292
2012-11-20,66,47,28,33,29,23,80,50,23,30.23,30.15,30.09,10,10,10,16,9,21,0.00,0,,224
2012-11-21,72,55,38,39,34,29,78,49,22,30.09,29.94,29.77,10,10,10,26,13,36,0.00,0,,195
2012-11-22,59,46,34,37,28,18,78,51,29,30.32,29.98,29.74,10,10,10,32,13,40,0.00,0,,300
2012-11-23,37,28,18,20,8,4,68,46,27,30.54,30.45,30.34,10,10,10,24,15,33,0.00,0,,319
2012-11-24,50,36,21,22,16,10,61,46,27,30.34,30.01,29.83,10,10,7,20,9,26,0.00,0,,190
2012-11-25,45,38,31,28,23,18,70,57,34,30.13,29.99,29.90,10,10,10,13,8,,0.00,2,,11
2012-11-26,33,22,12,25,18,8,86,72,58,30.42,30.33,30.13,10,9,1,20,11,23,0.00,4,Snow,359
2012-11-27,46,29,12,26,19,9,86,73,42,30.41,30.26,30.13,10,10,7,23,8,31,0.00,0,,246
2012-11-28,50,32,14,27,21,11,89,64,35,30.32,30.21,30.05,10,10,10,13,7,17,0.00,0,,208
2012-11-29,61,42,24,28,25,22,93,58,24,30.05,29.96,29.89,10,10,10,13,7,,0.00,0,,218
2012-11-30,52,38,24,28,25,20,81,62,35,30.10,30.01,29.91,10,10,7,13,8,,0.00,0,,74